sensor_id;sensor_type;location;lat;lon;timestamp;pressure;altitude;pressure_sealevel;temperature;humidity
38289;BME280;24092;53.370;-6.588;2023-09-19T00:00:57;99490.66;;;5.65;100.00
38289;BME280;24092;53.370;-6.588;2023-09-19T00:03:24;99487.24;;;5.72;100.00
38289;BME280;24092;53.370;-6.588;2023-09-19T00:05:51;99482.70;;;5.66;100.00
38289;BME280;24092;53.370;-6.588;2023-09-19T00:08:18;99486.50;;;5.09;100.00
38289;BME280;24092;53.370;-6.588;2023-09-19T00:10:45;99488.77;;;5.62;100.00
38289;BME280;24092;53.370;-6.588;2023-09-19T00:13:12;99493.39;;;5.36;100.00
38289;BME280;24092;53.370;-6.588;2023-09-19T00:15:41;99491.35;;;5.12;100.00
38289;BME280;24092;53.370;-6.588;2023-09-19T00:18:08;99495.41;;;5.16;100.00
38289;BME280;24092;53.370;-6.588;2023-09-19T00:20:36;99491.15;;;5.72;100.00
38289;BME280;24092;53.370;-6.588;2023-09-19T00:23:03;99492.00;;;5.63;100.00
38289;BME280;24092;53.370;-6.588;2023-09-19T00:25:31;99487.56;;;5.70;100.00
38289;BME280;24092;53.370;-6.588;2023-09-19T00:27:58;99486.78;;;5.59;100.00
38289;BME280;24092;53.370;-6.588;2023-09-19T00:30:25;99490.53;;;6.00;100.00
38289;BME280;24092;53.370;-6.588;2023-09-19T00:32:52;99489.04;;;5.94;100.00
38289;BME280;24092;53.370;-6.588;2023-09-19T00:35:19;99484.21;;;5.42;100.00
38289;BME280;24092;53.370;-6.588;2023-09-19T00:37:47;99484.64;;;5.78;100.00
38289;BME280;24092;53.370;-6.588;2023-09-19T00:40:15;99476.67;;;6.03;100.00
38289;BME280;24092;53.370;-6.588;2023-09-19T00:42:42;99475.55;;;6.06;100.00
38289;BME280;24092;53.370;-6.588;2023-09-19T00:45:10;99464.73;;;5.92;100.00
38289;BME280;24092;53.370;-6.588;2023-09-19T00:47:38;99456.17;;;6.18;100.00
38289;BME280;24092;53.370;-6.588;2023-09-19T00:50:06;99452.92;;;6.44;100.00
38289;BME280;24092;53.370;-6.588;2023-09-19T00:52:35;99448.62;;;6.95;100.00
38289;BME280;24092;53.370;-6.588;2023-09-19T00:55:03;99444.21;;;7.49;100.00
38289;BME280;24092;53.370;-6.588;2023-09-19T00:57:31;99437.12;;;7.71;100.00
38289;BME280;24092;53.370;-6.588;2023-09-19T00:59:58;99427.54;;;7.59;100.00
38289;BME280;24092;53.370;-6.588;2023-09-19T01:02:27;99420.48;;;8.20;100.00
38289;BME280;24092;53.370;-6.588;2023-09-19T01:04:55;99414.05;;;8.48;100.00
38289;BME280;24092;53.370;-6.588;2023-09-19T01:07:22;99405.93;;;8.04;100.00
38289;BME280;24092;53.370;-6.588;2023-09-19T01:09:50;99404.23;;;6.99;100.00
38289;BME280;24092;53.370;-6.588;2023-09-19T01:12:22;99407.85;;;7.25;100.00
38289;BME280;24092;53.370;-6.588;2023-09-19T01:14:54;99397.59;;;7.48;100.00
38289;BME280;24092;53.370;-6.588;2023-09-19T01:17:27;99383.26;;;8.10;100.00
38289;BME280;24092;53.370;-6.588;2023-09-19T01:20:20;99374.08;;;7.56;100.00
38289;BME280;24092;53.370;-6.588;2023-09-19T01:23:00;99368.10;;;8.11;100.00
38289;BME280;24092;53.370;-6.588;2023-09-19T01:26:07;99365.63;;;7.46;100.00
38289;BME280;24092;53.370;-6.588;2023-09-19T01:28:54;99357.07;;;7.10;100.00
38289;BME280;24092;53.370;-6.588;2023-09-19T01:31:31;99349.00;;;6.27;100.00
38289;BME280;24092;53.370;-6.588;2023-09-19T01:34:02;99341.28;;;6.14;100.00
38289;BME280;24092;53.370;-6.588;2023-09-19T01:36:31;99338.89;;;5.69;100.00
38289;BME280;24092;53.370;-6.588;2023-09-19T01:39:00;99330.90;;;6.57;100.00
38289;BME280;24092;53.370;-6.588;2023-09-19T01:41:50;99319.07;;;6.03;100.00
38289;BME280;24092;53.370;-6.588;2023-09-19T01:44:24;99317.28;;;6.43;100.00
38289;BME280;24092;53.370;-6.588;2023-09-19T01:46:57;99306.89;;;5.62;100.00
38289;BME280;24092;53.370;-6.588;2023-09-19T01:49:34;99297.02;;;5.25;100.00
38289;BME280;24092;53.370;-6.588;2023-09-19T01:52:10;99288.90;;;5.57;100.00
38289;BME280;24092;53.370;-6.588;2023-09-19T01:54:46;99283.28;;;6.01;100.00
38289;BME280;24092;53.370;-6.588;2023-09-19T01:57:20;99275.13;;;6.10;100.00
38289;BME280;24092;53.370;-6.588;2023-09-19T01:59:52;99274.37;;;5.94;100.00
38289;BME280;24092;53.370;-6.588;2023-09-19T02:02:22;99273.86;;;5.90;100.00
38289;BME280;24092;53.370;-6.588;2023-09-19T02:04:50;99274.00;;;5.74;100.00
38289;BME280;24092;53.370;-6.588;2023-09-19T02:07:17;99273.58;;;6.25;100.00
38289;BME280;24092;53.370;-6.588;2023-09-19T02:09:44;99265.16;;;6.06;100.00
38289;BME280;24092;53.370;-6.588;2023-09-19T02:12:11;99258.07;;;6.04;100.00
38289;BME280;24092;53.370;-6.588;2023-09-19T02:14:38;99249.77;;;6.39;100.00
38289;BME280;24092;53.370;-6.588;2023-09-19T02:17:05;99242.58;;;5.81;100.00
38289;BME280;24092;53.370;-6.588;2023-09-19T02:19:32;99233.04;;;6.05;100.00
38289;BME280;24092;53.370;-6.588;2023-09-19T02:22:00;99222.06;;;6.02;100.00
38289;BME280;24092;53.370;-6.588;2023-09-19T02:24:27;99206.63;;;5.85;100.00
38289;BME280;24092;53.370;-6.588;2023-09-19T02:26:54;99202.66;;;6.43;100.00
38289;BME280;24092;53.370;-6.588;2023-09-19T02:29:21;99189.33;;;6.39;100.00
38289;BME280;24092;53.370;-6.588;2023-09-19T02:31:48;99185.75;;;6.07;100.00
38289;BME280;24092;53.370;-6.588;2023-09-19T02:34:15;99174.16;;;5.49;100.00
38289;BME280;24092;53.370;-6.588;2023-09-19T02:36:42;99174.77;;;5.89;100.00
38289;BME280;24092;53.370;-6.588;2023-09-19T02:39:09;99165.16;;;6.15;100.00
38289;BME280;24092;53.370;-6.588;2023-09-19T02:41:35;99151.30;;;6.48;100.00
38289;BME280;24092;53.370;-6.588;2023-09-19T02:44:03;99143.08;;;6.17;100.00
38289;BME280;24092;53.370;-6.588;2023-09-19T02:46:30;99134.73;;;6.19;100.00
38289;BME280;24092;53.370;-6.588;2023-09-19T02:48:57;99130.69;;;5.66;100.00
38289;BME280;24092;53.370;-6.588;2023-09-19T02:51:24;99116.08;;;6.23;100.00
38289;BME280;24092;53.370;-6.588;2023-09-19T02:53:51;99106.55;;;6.47;100.00
38289;BME280;24092;53.370;-6.588;2023-09-19T02:56:19;99096.90;;;6.34;100.00
38289;BME280;24092;53.370;-6.588;2023-09-19T02:58:46;99087.04;;;6.42;100.00
38289;BME280;24092;53.370;-6.588;2023-09-19T03:01:12;99071.64;;;6.25;100.00
38289;BME280;24092;53.370;-6.588;2023-09-19T03:03:40;99063.00;;;6.87;100.00
38289;BME280;24092;53.370;-6.588;2023-09-19T03:06:07;99055.98;;;6.81;100.00
38289;BME280;24092;53.370;-6.588;2023-09-19T03:08:34;99041.54;;;6.36;100.00
38289;BME280;24092;53.370;-6.588;2023-09-19T03:11:03;99037.03;;;6.51;100.00
38289;BME280;24092;53.370;-6.588;2023-09-19T03:13:30;99027.04;;;6.46;100.00
38289;BME280;24092;53.370;-6.588;2023-09-19T03:15:57;99016.33;;;6.78;100.00
38289;BME280;24092;53.370;-6.588;2023-09-19T03:18:25;99004.15;;;6.34;100.00
38289;BME280;24092;53.370;-6.588;2023-09-19T03:20:53;98988.03;;;6.58;100.00
38289;BME280;24092;53.370;-6.588;2023-09-19T03:23:20;98976.97;;;6.79;100.00
38289;BME280;24092;53.370;-6.588;2023-09-19T03:25:47;98969.29;;;6.41;100.00
38289;BME280;24092;53.370;-6.588;2023-09-19T03:28:14;98952.56;;;7.11;100.00
38289;BME280;24092;53.370;-6.588;2023-09-19T03:30:46;98935.80;;;6.99;100.00
38289;BME280;24092;53.370;-6.588;2023-09-19T03:33:13;98925.89;;;7.08;100.00
38289;BME280;24092;53.370;-6.588;2023-09-19T03:35:40;98910.90;;;7.53;100.00
38289;BME280;24092;53.370;-6.588;2023-09-19T03:38:08;98900.46;;;7.41;100.00
38289;BME280;24092;53.370;-6.588;2023-09-19T03:40:34;98895.16;;;6.59;100.00
38289;BME280;24092;53.370;-6.588;2023-09-19T03:43:01;98893.49;;;6.93;100.00
38289;BME280;24092;53.370;-6.588;2023-09-19T03:45:28;98877.61;;;6.60;100.00
38289;BME280;24092;53.370;-6.588;2023-09-19T03:47:55;98867.87;;;6.68;100.00
38289;BME280;24092;53.370;-6.588;2023-09-19T03:50:22;98865.86;;;6.32;100.00
38289;BME280;24092;53.370;-6.588;2023-09-19T03:52:49;98860.26;;;6.37;100.00
38289;BME280;24092;53.370;-6.588;2023-09-19T03:55:16;98848.62;;;6.51;100.00
38289;BME280;24092;53.370;-6.588;2023-09-19T03:57:48;98840.67;;;6.50;100.00
38289;BME280;24092;53.370;-6.588;2023-09-19T04:00:15;98829.45;;;6.56;100.00
38289;BME280;24092;53.370;-6.588;2023-09-19T04:02:42;98827.13;;;6.77;100.00
38289;BME280;24092;53.370;-6.588;2023-09-19T04:05:09;98826.89;;;6.35;100.00
38289;BME280;24092;53.370;-6.588;2023-09-19T04:07:36;98807.04;;;6.38;100.00
38289;BME280;24092;53.370;-6.588;2023-09-19T04:10:03;98809.13;;;6.66;100.00
38289;BME280;24092;53.370;-6.588;2023-09-19T04:12:31;98812.49;;;6.92;100.00
38289;BME280;24092;53.370;-6.588;2023-09-19T04:14:57;98802.41;;;6.60;100.00
38289;BME280;24092;53.370;-6.588;2023-09-19T04:17:24;98795.05;;;6.67;100.00
38289;BME280;24092;53.370;-6.588;2023-09-19T04:19:51;98797.79;;;6.89;100.00
38289;BME280;24092;53.370;-6.588;2023-09-19T04:22:18;98780.43;;;6.62;100.00
38289;BME280;24092;53.370;-6.588;2023-09-19T04:24:45;98775.98;;;6.92;100.00
38289;BME280;24092;53.370;-6.588;2023-09-19T04:27:13;98759.46;;;7.43;100.00
38289;BME280;24092;53.370;-6.588;2023-09-19T04:29:40;98755.69;;;7.36;100.00
38289;BME280;24092;53.370;-6.588;2023-09-19T04:32:07;98759.65;;;6.88;100.00
38289;BME280;24092;53.370;-6.588;2023-09-19T04:34:35;98752.26;;;7.14;100.00
38289;BME280;24092;53.370;-6.588;2023-09-19T04:37:03;98737.04;;;7.35;100.00
38289;BME280;24092;53.370;-6.588;2023-09-19T04:39:30;98740.68;;;7.15;100.00
38289;BME280;24092;53.370;-6.588;2023-09-19T04:41:57;98747.43;;;7.17;100.00
38289;BME280;24092;53.370;-6.588;2023-09-19T04:44:24;98724.02;;;7.31;100.00
38289;BME280;24092;53.370;-6.588;2023-09-19T04:46:51;98731.26;;;7.31;100.00
38289;BME280;24092;53.370;-6.588;2023-09-19T04:49:18;98729.70;;;7.57;100.00
38289;BME280;24092;53.370;-6.588;2023-09-19T04:51:44;98728.08;;;7.38;100.00
38289;BME280;24092;53.370;-6.588;2023-09-19T04:54:11;98717.83;;;7.59;100.00
38289;BME280;24092;53.370;-6.588;2023-09-19T04:56:38;98713.04;;;7.66;100.00
38289;BME280;24092;53.370;-6.588;2023-09-19T04:59:05;98705.34;;;7.96;100.00
38289;BME280;24092;53.370;-6.588;2023-09-19T05:01:32;98704.34;;;7.66;100.00
38289;BME280;24092;53.370;-6.588;2023-09-19T05:03:59;98711.54;;;7.61;100.00
38289;BME280;24092;53.370;-6.588;2023-09-19T05:06:25;98707.12;;;7.92;100.00
38289;BME280;24092;53.370;-6.588;2023-09-19T05:08:52;98710.64;;;7.76;100.00
38289;BME280;24092;53.370;-6.588;2023-09-19T05:11:19;98702.55;;;7.70;100.00
38289;BME280;24092;53.370;-6.588;2023-09-19T05:13:47;98706.10;;;7.86;100.00
38289;BME280;24092;53.370;-6.588;2023-09-19T05:16:14;98695.81;;;7.96;100.00
38289;BME280;24092;53.370;-6.588;2023-09-19T05:18:41;98687.09;;;7.96;100.00
38289;BME280;24092;53.370;-6.588;2023-09-19T05:21:09;98691.61;;;8.03;100.00
38289;BME280;24092;53.370;-6.588;2023-09-19T05:23:37;98688.88;;;8.02;100.00
38289;BME280;24092;53.370;-6.588;2023-09-19T05:26:03;98679.33;;;8.09;100.00
38289;BME280;24092;53.370;-6.588;2023-09-19T05:28:30;98689.79;;;7.52;100.00
38289;BME280;24092;53.370;-6.588;2023-09-19T05:30:58;98692.44;;;7.79;100.00
38289;BME280;24092;53.370;-6.588;2023-09-19T05:33:26;98682.72;;;8.37;100.00
38289;BME280;24092;53.370;-6.588;2023-09-19T05:35:53;98667.84;;;8.26;100.00
38289;BME280;24092;53.370;-6.588;2023-09-19T05:38:21;98663.57;;;8.26;100.00
38289;BME280;24092;53.370;-6.588;2023-09-19T05:40:48;98653.12;;;8.38;100.00
38289;BME280;24092;53.370;-6.588;2023-09-19T05:43:14;98664.86;;;8.41;100.00
38289;BME280;24092;53.370;-6.588;2023-09-19T05:45:41;98658.84;;;7.92;100.00
38289;BME280;24092;53.370;-6.588;2023-09-19T05:50:06;98653.10;;;8.24;100.00
38289;BME280;24092;53.370;-6.588;2023-09-19T05:52:34;98650.16;;;8.50;100.00
38289;BME280;24092;53.370;-6.588;2023-09-19T05:55:01;98664.84;;;8.27;100.00
38289;BME280;24092;53.370;-6.588;2023-09-19T05:57:28;98675.96;;;8.17;100.00
38289;BME280;24092;53.370;-6.588;2023-09-19T05:59:55;98684.11;;;9.02;100.00
38289;BME280;24092;53.370;-6.588;2023-09-19T06:02:22;98678.25;;;9.11;100.00
38289;BME280;24092;53.370;-6.588;2023-09-19T06:04:48;98683.46;;;8.78;100.00
38289;BME280;24092;53.370;-6.588;2023-09-19T06:07:15;98678.12;;;8.61;100.00
38289;BME280;24092;53.370;-6.588;2023-09-19T06:09:42;98681.14;;;8.79;100.00
38289;BME280;24092;53.370;-6.588;2023-09-19T06:12:09;98669.39;;;9.13;100.00
38289;BME280;24092;53.370;-6.588;2023-09-19T06:14:35;98675.54;;;8.85;100.00
38289;BME280;24092;53.370;-6.588;2023-09-19T06:17:03;98666.93;;;9.13;100.00
38289;BME280;24092;53.370;-6.588;2023-09-19T06:19:30;98669.67;;;9.53;100.00
38289;BME280;24092;53.370;-6.588;2023-09-19T06:21:57;98666.41;;;9.00;100.00
38289;BME280;24092;53.370;-6.588;2023-09-19T06:24:23;98669.78;;;8.94;100.00
38289;BME280;24092;53.370;-6.588;2023-09-19T06:26:50;98673.59;;;9.40;100.00
38289;BME280;24092;53.370;-6.588;2023-09-19T06:29:18;98674.36;;;9.28;100.00
38289;BME280;24092;53.370;-6.588;2023-09-19T06:31:46;98676.35;;;9.35;100.00
38289;BME280;24092;53.370;-6.588;2023-09-19T06:34:13;98667.22;;;9.17;100.00
38289;BME280;24092;53.370;-6.588;2023-09-19T06:36:40;98667.18;;;9.66;100.00
38289;BME280;24092;53.370;-6.588;2023-09-19T06:39:07;98656.81;;;9.64;100.00
38289;BME280;24092;53.370;-6.588;2023-09-19T06:41:34;98672.26;;;9.58;100.00
38289;BME280;24092;53.370;-6.588;2023-09-19T06:44:01;98677.07;;;9.40;100.00
38289;BME280;24092;53.370;-6.588;2023-09-19T06:46:29;98689.54;;;9.76;100.00
38289;BME280;24092;53.370;-6.588;2023-09-19T06:48:56;98685.61;;;9.13;100.00
38289;BME280;24092;53.370;-6.588;2023-09-19T06:51:22;98691.61;;;9.98;100.00
38289;BME280;24092;53.370;-6.588;2023-09-19T06:53:49;98698.35;;;9.73;100.00
38289;BME280;24092;53.370;-6.588;2023-09-19T06:56:16;98700.90;;;10.05;100.00
38289;BME280;24092;53.370;-6.588;2023-09-19T06:58:43;98704.55;;;9.63;100.00
38289;BME280;24092;53.370;-6.588;2023-09-19T07:01:09;98710.98;;;9.86;100.00
38289;BME280;24092;53.370;-6.588;2023-09-19T07:03:36;98717.62;;;9.78;100.00
38289;BME280;24092;53.370;-6.588;2023-09-19T07:06:03;98708.79;;;9.94;100.00
38289;BME280;24092;53.370;-6.588;2023-09-19T07:08:31;98705.21;;;9.34;100.00
38289;BME280;24092;53.370;-6.588;2023-09-19T07:10:57;98711.37;;;9.62;100.00
38289;BME280;24092;53.370;-6.588;2023-09-19T07:13:24;98722.03;;;10.03;100.00
38289;BME280;24092;53.370;-6.588;2023-09-19T07:15:51;98720.67;;;10.16;100.00
38289;BME280;24092;53.370;-6.588;2023-09-19T07:18:18;98719.70;;;10.51;100.00
38289;BME280;24092;53.370;-6.588;2023-09-19T07:20:46;98733.74;;;10.48;100.00
38289;BME280;24092;53.370;-6.588;2023-09-19T07:23:13;98732.64;;;10.27;100.00
38289;BME280;24092;53.370;-6.588;2023-09-19T07:25:40;98728.48;;;9.65;100.00
38289;BME280;24092;53.370;-6.588;2023-09-19T07:28:07;98736.21;;;10.18;100.00
38289;BME280;24092;53.370;-6.588;2023-09-19T07:30:36;98733.04;;;10.57;100.00
38289;BME280;24092;53.370;-6.588;2023-09-19T07:33:04;98732.71;;;10.57;100.00
38289;BME280;24092;53.370;-6.588;2023-09-19T07:35:32;98739.61;;;10.48;100.00
38289;BME280;24092;53.370;-6.588;2023-09-19T07:38:00;98746.30;;;10.47;100.00
38289;BME280;24092;53.370;-6.588;2023-09-19T07:40:27;98739.30;;;10.40;100.00
38289;BME280;24092;53.370;-6.588;2023-09-19T07:42:55;98739.70;;;10.68;100.00
38289;BME280;24092;53.370;-6.588;2023-09-19T07:45:22;98748.06;;;10.19;100.00
38289;BME280;24092;53.370;-6.588;2023-09-19T07:47:50;98748.90;;;10.52;100.00
38289;BME280;24092;53.370;-6.588;2023-09-19T07:50:19;98752.75;;;10.40;100.00
38289;BME280;24092;53.370;-6.588;2023-09-19T07:52:46;98751.85;;;10.45;100.00
38289;BME280;24092;53.370;-6.588;2023-09-19T07:55:14;98753.72;;;11.23;100.00
38289;BME280;24092;53.370;-6.588;2023-09-19T07:57:40;98748.68;;;10.47;100.00
38289;BME280;24092;53.370;-6.588;2023-09-19T08:00:08;98748.07;;;10.93;100.00
38289;BME280;24092;53.370;-6.588;2023-09-19T08:02:36;98752.38;;;10.99;100.00
38289;BME280;24092;53.370;-6.588;2023-09-19T08:05:04;98746.14;;;11.18;100.00
38289;BME280;24092;53.370;-6.588;2023-09-19T08:07:31;98739.25;;;11.10;100.00
38289;BME280;24092;53.370;-6.588;2023-09-19T08:09:58;98744.77;;;10.84;100.00
38289;BME280;24092;53.370;-6.588;2023-09-19T08:12:25;98747.40;;;11.34;100.00
38289;BME280;24092;53.370;-6.588;2023-09-19T08:14:52;98738.54;;;11.29;100.00
38289;BME280;24092;53.370;-6.588;2023-09-19T08:17:19;98741.21;;;11.05;100.00
38289;BME280;24092;53.370;-6.588;2023-09-19T08:19:46;98747.93;;;10.70;100.00
38289;BME280;24092;53.370;-6.588;2023-09-19T08:22:13;98752.49;;;11.02;100.00
38289;BME280;24092;53.370;-6.588;2023-09-19T08:24:40;98754.75;;;11.27;100.00
38289;BME280;24092;53.370;-6.588;2023-09-19T08:27:06;98752.31;;;11.35;100.00
38289;BME280;24092;53.370;-6.588;2023-09-19T08:29:33;98748.05;;;11.40;100.00
38289;BME280;24092;53.370;-6.588;2023-09-19T08:32:01;98755.31;;;11.48;100.00
38289;BME280;24092;53.370;-6.588;2023-09-19T08:34:28;98748.02;;;11.23;100.00
38289;BME280;24092;53.370;-6.588;2023-09-19T08:36:56;98755.21;;;11.06;100.00
38289;BME280;24092;53.370;-6.588;2023-09-19T08:39:24;98753.26;;;11.00;100.00
38289;BME280;24092;53.370;-6.588;2023-09-19T08:41:57;98756.40;;;11.40;100.00
38289;BME280;24092;53.370;-6.588;2023-09-19T08:44:24;98754.85;;;11.22;100.00
38289;BME280;24092;53.370;-6.588;2023-09-19T08:46:55;98755.48;;;11.43;100.00
38289;BME280;24092;53.370;-6.588;2023-09-19T08:49:27;98762.83;;;10.94;100.00
38289;BME280;24092;53.370;-6.588;2023-09-19T08:52:07;98765.51;;;11.10;100.00
38289;BME280;24092;53.370;-6.588;2023-09-19T08:54:38;98766.96;;;11.25;100.00
38289;BME280;24092;53.370;-6.588;2023-09-19T08:57:08;98775.06;;;11.49;100.00
38289;BME280;24092;53.370;-6.588;2023-09-19T08:59:38;98771.69;;;11.08;100.00
38289;BME280;24092;53.370;-6.588;2023-09-19T09:02:11;98785.17;;;11.30;100.00
38289;BME280;24092;53.370;-6.588;2023-09-19T09:04:39;98778.18;;;10.80;100.00
38289;BME280;24092;53.370;-6.588;2023-09-19T09:07:11;98789.28;;;10.74;100.00
38289;BME280;24092;53.370;-6.588;2023-09-19T09:09:38;98784.71;;;11.46;100.00
38289;BME280;24092;53.370;-6.588;2023-09-19T09:12:06;98786.44;;;10.75;100.00
38289;BME280;24092;53.370;-6.588;2023-09-19T09:14:33;98783.05;;;10.93;100.00
38289;BME280;24092;53.370;-6.588;2023-09-19T09:16:59;98799.11;;;10.56;100.00
38289;BME280;24092;53.370;-6.588;2023-09-19T09:19:27;98793.17;;;10.67;100.00
38289;BME280;24092;53.370;-6.588;2023-09-19T09:22:06;98800.85;;;11.06;100.00
38289;BME280;24092;53.370;-6.588;2023-09-19T09:24:33;98793.84;;;11.22;100.00
38289;BME280;24092;53.370;-6.588;2023-09-19T09:27:00;98794.99;;;11.01;100.00
38289;BME280;24092;53.370;-6.588;2023-09-19T09:29:47;98791.10;;;11.09;100.00
38289;BME280;24092;53.370;-6.588;2023-09-19T09:32:19;98794.38;;;10.84;100.00
38289;BME280;24092;53.370;-6.588;2023-09-19T09:34:48;98794.91;;;11.50;100.00
38289;BME280;24092;53.370;-6.588;2023-09-19T09:37:16;98791.48;;;11.32;100.00
38289;BME280;24092;53.370;-6.588;2023-09-19T09:39:49;98788.77;;;10.77;100.00
38289;BME280;24092;53.370;-6.588;2023-09-19T09:42:29;98792.99;;;11.36;100.00
38289;BME280;24092;53.370;-6.588;2023-09-19T09:45:12;98784.56;;;11.42;100.00
38289;BME280;24092;53.370;-6.588;2023-09-19T09:47:42;98790.25;;;11.47;100.00
38289;BME280;24092;53.370;-6.588;2023-09-19T09:50:09;98785.95;;;11.72;100.00
38289;BME280;24092;53.370;-6.588;2023-09-19T09:52:45;98781.96;;;11.83;100.00
38289;BME280;24092;53.370;-6.588;2023-09-19T09:55:12;98782.39;;;11.40;100.00
38289;BME280;24092;53.370;-6.588;2023-09-19T09:57:38;98790.00;;;11.15;100.00
38289;BME280;24092;53.370;-6.588;2023-09-19T10:00:07;98790.65;;;11.39;100.00
38289;BME280;24092;53.370;-6.588;2023-09-19T10:02:35;98787.49;;;11.63;100.00
38289;BME280;24092;53.370;-6.588;2023-09-19T10:05:12;98789.34;;;11.21;100.00
38289;BME280;24092;53.370;-6.588;2023-09-19T10:07:39;98787.06;;;11.76;100.00
38289;BME280;24092;53.370;-6.588;2023-09-19T10:10:07;98786.54;;;11.70;100.00
38289;BME280;24092;53.370;-6.588;2023-09-19T10:12:34;98791.57;;;12.14;100.00
38289;BME280;24092;53.370;-6.588;2023-09-19T10:15:02;98784.22;;;11.29;100.00
38289;BME280;24092;53.370;-6.588;2023-09-19T10:17:31;98793.34;;;11.66;100.00
38289;BME280;24092;53.370;-6.588;2023-09-19T10:20:01;98794.94;;;11.67;100.00
38289;BME280;24092;53.370;-6.588;2023-09-19T10:22:29;98793.90;;;12.15;100.00
38289;BME280;24092;53.370;-6.588;2023-09-19T10:24:59;98794.85;;;11.71;100.00
38289;BME280;24092;53.370;-6.588;2023-09-19T10:27:27;98804.15;;;11.66;100.00
38289;BME280;24092;53.370;-6.588;2023-09-19T10:29:57;98806.81;;;11.65;100.00
38289;BME280;24092;53.370;-6.588;2023-09-19T10:32:27;98796.14;;;11.58;100.00
38289;BME280;24092;53.370;-6.588;2023-09-19T10:34:55;98801.72;;;11.60;100.00
38289;BME280;24092;53.370;-6.588;2023-09-19T10:37:24;98804.25;;;11.59;100.00
38289;BME280;24092;53.370;-6.588;2023-09-19T10:39:55;98804.61;;;11.49;100.00
38289;BME280;24092;53.370;-6.588;2023-09-19T10:42:23;98805.95;;;11.57;100.00
38289;BME280;24092;53.370;-6.588;2023-09-19T10:44:54;98809.78;;;11.93;100.00
38289;BME280;24092;53.370;-6.588;2023-09-19T10:47:21;98819.81;;;11.43;100.00
38289;BME280;24092;53.370;-6.588;2023-09-19T10:49:48;98825.44;;;11.68;100.00
38289;BME280;24092;53.370;-6.588;2023-09-19T10:52:19;98822.12;;;11.28;100.00
38289;BME280;24092;53.370;-6.588;2023-09-19T10:54:49;98829.53;;;11.34;100.00
38289;BME280;24092;53.370;-6.588;2023-09-19T10:57:20;98825.38;;;11.16;100.00
38289;BME280;24092;53.370;-6.588;2023-09-19T11:00:02;98830.76;;;11.63;100.00
38289;BME280;24092;53.370;-6.588;2023-09-19T11:02:29;98827.08;;;11.27;100.00
38289;BME280;24092;53.370;-6.588;2023-09-19T11:05:11;98826.63;;;11.31;100.00
38289;BME280;24092;53.370;-6.588;2023-09-19T11:07:57;98826.88;;;11.39;100.00
38289;BME280;24092;53.370;-6.588;2023-09-19T11:10:57;98822.42;;;11.60;100.00
38289;BME280;24092;53.370;-6.588;2023-09-19T11:13:24;98825.09;;;11.68;100.00
38289;BME280;24092;53.370;-6.588;2023-09-19T11:16:04;98826.48;;;11.51;100.00
38289;BME280;24092;53.370;-6.588;2023-09-19T11:19:03;98822.87;;;11.00;100.00
38289;BME280;24092;53.370;-6.588;2023-09-19T11:21:42;98833.32;;;11.78;100.00
38289;BME280;24092;53.370;-6.588;2023-09-19T11:24:33;98823.31;;;11.48;100.00
38289;BME280;24092;53.370;-6.588;2023-09-19T11:27:10;98823.98;;;11.80;100.00
38289;BME280;24092;53.370;-6.588;2023-09-19T11:29:38;98828.50;;;11.51;100.00
38289;BME280;24092;53.370;-6.588;2023-09-19T11:32:05;98834.62;;;11.52;100.00
38289;BME280;24092;53.370;-6.588;2023-09-19T11:34:41;98834.12;;;11.37;100.00
38289;BME280;24092;53.370;-6.588;2023-09-19T11:38:13;98838.87;;;12.09;100.00
38289;BME280;24092;53.370;-6.588;2023-09-19T11:40:45;98840.74;;;11.99;100.00
38289;BME280;24092;53.370;-6.588;2023-09-19T11:43:44;98834.77;;;11.85;100.00
38289;BME280;24092;53.370;-6.588;2023-09-19T11:46:12;98839.36;;;11.92;100.00
38289;BME280;24092;53.370;-6.588;2023-09-19T11:48:39;98836.49;;;10.29;100.00
38289;BME280;24092;53.370;-6.588;2023-09-19T11:51:12;98835.67;;;10.78;100.00
38289;BME280;24092;53.370;-6.588;2023-09-19T11:53:40;98830.68;;;12.27;100.00
38289;BME280;24092;53.370;-6.588;2023-09-19T11:56:09;98823.83;;;12.39;100.00
38289;BME280;24092;53.370;-6.588;2023-09-19T11:58:38;98819.45;;;12.21;100.00
38289;BME280;24092;53.370;-6.588;2023-09-19T12:01:05;98821.29;;;11.57;100.00
38289;BME280;24092;53.370;-6.588;2023-09-19T12:03:34;98824.89;;;11.59;100.00
38289;BME280;24092;53.370;-6.588;2023-09-19T12:06:10;98815.86;;;11.59;100.00
38289;BME280;24092;53.370;-6.588;2023-09-19T12:08:39;98820.13;;;12.19;100.00
38289;BME280;24092;53.370;-6.588;2023-09-19T12:11:06;98817.86;;;12.20;100.00
38289;BME280;24092;53.370;-6.588;2023-09-19T12:13:32;98816.63;;;12.00;100.00
38289;BME280;24092;53.370;-6.588;2023-09-19T12:16:00;98820.05;;;11.76;100.00
38289;BME280;24092;53.370;-6.588;2023-09-19T12:18:28;98817.02;;;11.85;100.00
38289;BME280;24092;53.370;-6.588;2023-09-19T12:20:55;98820.69;;;11.39;100.00
38289;BME280;24092;53.370;-6.588;2023-09-19T12:23:23;98817.16;;;12.10;100.00
38289;BME280;24092;53.370;-6.588;2023-09-19T12:25:50;98813.55;;;12.26;100.00
38289;BME280;24092;53.370;-6.588;2023-09-19T12:28:18;98818.70;;;12.22;100.00
38289;BME280;24092;53.370;-6.588;2023-09-19T12:30:45;98816.28;;;11.70;100.00
38289;BME280;24092;53.370;-6.588;2023-09-19T12:33:17;98827.96;;;11.80;100.00
38289;BME280;24092;53.370;-6.588;2023-09-19T12:35:44;98828.01;;;11.91;100.00
38289;BME280;24092;53.370;-6.588;2023-09-19T12:38:10;98828.55;;;11.93;100.00
38289;BME280;24092;53.370;-6.588;2023-09-19T12:40:39;98839.65;;;11.25;100.00
38289;BME280;24092;53.370;-6.588;2023-09-19T12:43:07;98833.06;;;11.89;100.00
38289;BME280;24092;53.370;-6.588;2023-09-19T12:45:35;98837.67;;;11.87;100.00
38289;BME280;24092;53.370;-6.588;2023-09-19T12:48:18;98823.24;;;12.01;100.00
38289;BME280;24092;53.370;-6.588;2023-09-19T12:51:05;98831.56;;;11.61;100.00
38289;BME280;24092;53.370;-6.588;2023-09-19T12:53:33;98834.76;;;11.50;100.00
38289;BME280;24092;53.370;-6.588;2023-09-19T12:56:00;98841.54;;;11.46;100.00
38289;BME280;24092;53.370;-6.588;2023-09-19T12:58:28;98849.33;;;11.36;100.00